Time;durP1;ratioP1;P1;durP2;ratioP2;P2;SDS_P1;SDS_P2;PMS_P1;PMS_P2;Temp;Humidity;BMP_temperature;BMP_pressure;BME280_temperature;BME280_humidity;BME280_pressure;Samples;Min_cycle;Max_cycle;Signal;HPM_P1;HPM_P2
2022/09/14 00:01:35;;;;;;;1.60;0.63;;;23.40;94.80;;;;;;5071193;28;20180;-68
2022/09/14 00:04:06;;;;;;;2.83;1.03;;;22.60;94.60;;;;;;5071585;28;20295;-68
2022/09/14 00:06:35;;;;;;;2.47;0.60;;;22.50;97.40;;;;;;5071115;28;20191;-69
2022/09/14 00:09:09;;;;;;;3.33;0.80;;;22.70;99.50;;;;;;5071395;28;20215;-68
2022/09/14 00:11:38;;;;;;;1.93;0.60;;;23.10;88.80;;;;;;5071297;28;20201;-67
2022/09/14 00:14:06;;;;;;;2.37;0.40;;;23.10;91.90;;;;;;5071523;28;20636;-68
2022/09/14 00:16:37;;;;;;;1.40;0.67;;;23.40;93.90;;;;;;5071079;28;20179;-68
2022/09/14 00:19:07;;;;;;;2.80;0.57;;;24.20;79.10;;;;;;5071209;28;20213;-68
2022/09/14 00:21:41;;;;;;;1.73;0.67;;;24.60;69.50;;;;;;5070465;28;20219;-68
2022/09/14 00:24:11;;;;;;;0.97;0.40;;;25.00;61.70;;;;;;5066654;28;20236;-69
2022/09/14 00:26:38;;;;;;;1.90;0.53;;;24.30;52.10;;;;;;5061380;28;20188;-68
2022/09/14 00:29:06;;;;;;;1.47;0.60;;;22.80;53.30;;;;;;5059410;28;20692;-68
2022/09/14 00:38:17;;;;;;;3.43;0.80;;;21.70;88.90;;;;;;5052750;28;20230;-69
2022/09/14 00:40:45;;;;;;;4.37;0.77;;;22.10;85.50;;;;;;5061596;28;20176;-69
2022/09/14 00:43:15;;;;;;;1.70;0.63;;;22.80;81.50;;;;;;5059596;28;20653;-69
2022/09/14 00:45:42;;;;;;;1.80;0.50;;;23.20;70.60;;;;;;5060231;28;20180;-69
2022/09/14 00:48:10;;;;;;;3.50;0.93;;;23.00;64.10;;;;;;5060486;28;20292;-68
2022/09/14 00:50:38;;;;;;;3.73;0.70;;;23.30;66.40;;;;;;5060260;28;20632;-68
2022/09/14 00:53:05;;;;;;;3.37;0.70;;;23.40;61.80;;;;;;5061874;28;20521;-68
2022/09/14 00:55:33;;;;;;;1.47;0.50;;;23.80;64.10;;;;;;5060438;28;20180;-68
2022/09/14 00:58:01;;;;;;;2.27;0.70;;;24.30;67.10;;;;;;5061607;28;20184;-69
2022/09/14 01:00:30;;;;;;;1.23;0.60;;;24.80;61.10;;;;;;5057235;28;20306;-68
2022/09/14 01:02:57;;;;;;;4.83;3.00;;;24.80;57.90;;;;;;5060756;28;20172;-69
2022/09/14 01:05:57;;;;;;;9.80;5.77;;;25.50;46.90;;;;;;5060944;28;20173;-69
2022/09/14 01:09:00;;;;;;;2.20;0.80;;;25.60;46.10;;;;;;5052982;28;20323;-68
2022/09/14 01:11:34;;;;;;;2.33;0.80;;;25.90;48.90;;;;;;5034546;28;20188;-69
2022/09/14 01:14:19;;;;;;;3.10;0.77;;;24.70;48.00;;;;;;5062697;28;20229;-69
2022/09/14 01:17:05;;;;;;;1.33;0.57;;;23.90;52.10;;;;;;5069412;28;20183;-68
2022/09/14 01:19:50;;;;;;;4.50;1.10;;;24.00;48.30;;;;;;5068480;28;20263;-68
2022/09/14 01:22:39;;;;;;;2.67;1.07;;;24.50;48.30;;;;;;5072278;28;20184;-69
2022/09/14 01:25:20;;;;;;;4.20;0.90;;;24.30;47.20;;;;;;5074046;28;20238;-69
2022/09/14 01:27:53;;;;;;;2.27;0.73;;;23.60;48.70;;;;;;5073649;28;20226;-68
2022/09/14 01:30:23;;;;;;;1.80;0.87;;;24.20;50.50;;;;;;5073903;28;20285;-70
2022/09/14 01:33:18;;;;;;;2.00;0.80;;;24.50;52.40;;;;;;5064499;28;20172;-69
2022/09/14 01:35:58;;;;;;;4.73;1.13;;;24.90;48.70;;;;;;5073840;28;20187;-69
2022/09/14 01:38:40;;;;;;;1.83;0.90;;;24.60;44.50;;;;;;5073912;28;20172;-69
2022/09/14 01:41:12;;;;;;;2.17;0.90;;;23.10;50.90;;;;;;5073933;28;20186;-69
2022/09/14 01:43:44;;;;;;;3.57;1.30;;;22.40;56.80;;;;;;5073393;28;20177;-70
2022/09/14 01:46:22;;;;;;;9.47;1.10;;;22.20;57.90;;;;;;5073866;28;20178;-68
2022/09/14 01:49:27;;;;;;;2.20;1.10;;;21.50;54.40;;;;;;5073706;28;20295;-70
2022/09/14 01:52:07;;;;;;;6.87;1.40;;;22.40;69.10;;;;;;5060265;28;20195;-69
2022/09/14 01:54:38;;;;;;;4.47;1.00;;;23.40;58.80;;;;;;5073084;28;20650;-69
2022/09/14 01:57:35;;;;;;;1.37;0.90;;;23.10;51.20;;;;;;5073803;28;20239;-69
2022/09/14 02:00:10;;;;;;;4.67;0.90;;;23.00;52.50;;;;;;5072956;28;20279;-69
2022/09/14 02:02:55;;;;;;;2.67;0.80;;;22.00;54.70;;;;;;5073356;28;20187;-70
2022/09/14 02:05:41;;;;;;;5.77;1.10;;;21.60;57.80;;;;;;5072893;28;20187;-70
2022/09/14 02:08:09;;;;;;;3.80;1.03;;;21.10;60.40;;;;;;5073466;28;20214;-69
2022/09/14 02:10:36;;;;;;;2.63;1.07;;;20.90;55.30;;;;;;5073215;28;20186;-69
2022/09/14 02:13:05;;;;;;;2.23;1.03;;;20.50;55.90;;;;;;5073270;28;20650;-68
2022/09/14 02:15:35;;;;;;;2.83;0.83;;;20.30;68.30;;;;;;5057499;28;20179;-68
2022/09/14 02:18:04;;;;;;;4.47;1.00;;;20.40;64.30;;;;;;5073150;28;20189;-68
2022/09/14 02:21:03;;;;;;;2.53;0.90;;;20.20;65.80;;;;;;5072805;28;20278;-70
2022/09/14 02:23:34;;;;;;;3.90;1.10;;;21.30;80.90;;;;;;5072474;28;20245;-68
2022/09/14 02:26:01;;;;;;;1.93;0.83;;;21.70;56.60;;;;;;5072616;28;20183;-68
2022/09/14 02:28:29;;;;;;;2.57;1.00;;;21.20;58.30;;;;;;5072819;28;20213;-68
2022/09/14 02:31:17;;;;;;;2.43;1.33;;;21.20;59.50;;;;;;5072811;28;20668;-68
2022/09/14 02:34:06;;;;;;;2.57;1.10;;;20.90;57.90;;;;;;5072415;28;20186;-68
2022/09/14 02:37:00;;;;;;;3.57;0.97;;;20.20;59.00;;;;;;5072715;28;20172;-69
2022/09/14 02:39:53;;;;;;;6.53;1.33;;;20.70;62.10;;;;;;5052673;28;20649;-68
2022/09/14 02:42:25;;;;;;;1.17;0.90;;;21.20;58.30;;;;;;5052727;28;20326;-69
2022/09/14 02:45:11;;;;;;;1.73;1.10;;;21.80;63.70;;;;;;5067418;28;20240;-68
2022/09/14 02:47:44;;;;;;;2.40;1.00;;;22.00;60.00;;;;;;5072490;28;20175;-68
2022/09/14 02:50:34;;;;;;;5.23;1.10;;;22.30;55.40;;;;;;5072527;28;20673;-69
2022/09/14 02:53:37;;;;;;;5.47;0.93;;;22.80;52.00;;;;;;5064397;28;20199;-68
2022/09/14 02:56:07;;;;;;;4.37;1.20;;;23.20;55.60;;;;;;5064203;28;20244;-69
2022/09/14 02:58:40;;;;;;;3.07;1.10;;;22.70;55.10;;;;;;5072273;28;20175;-68
2022/09/14 03:01:12;;;;;;;2.47;1.10;;;22.20;55.50;;;;;;5072132;28;20175;-67
2022/09/14 03:03:39;;;;;;;4.43;1.13;;;21.80;53.50;;;;;;5071986;28;20189;-68
2022/09/14 03:06:07;;;;;;;4.10;1.20;;;21.80;57.00;;;;;;5071986;28;20219;-68
2022/09/14 03:08:35;;;;;;;2.47;0.90;;;22.40;57.70;;;;;;5071985;28;20313;-68
2022/09/14 03:11:03;;;;;;;4.13;1.33;;;22.60;54.30;;;;;;5072068;28;20671;-68
2022/09/14 03:13:30;;;;;;;3.53;1.00;;;22.90;54.40;;;;;;5071726;28;20266;-69
2022/09/14 03:15:57;;;;;;;6.27;1.03;;;23.10;57.70;;;;;;5071729;28;20262;-68
2022/09/14 03:18:25;;;;;;;4.17;1.03;;;23.30;52.60;;;;;;5071910;28;20274;-68
2022/09/14 03:20:52;;;;;;;2.63;1.10;;;23.50;52.90;;;;;;5071607;28;20180;-68
2022/09/14 03:23:20;;;;;;;15.87;1.40;;;22.30;50.40;;;;;;5071615;28;20183;-68
2022/09/14 03:25:48;;;;;;;1.57;1.00;;;21.30;54.00;;;;;;5070251;28;20527;-68
2022/09/14 03:28:15;;;;;;;2.63;1.10;;;20.70;68.40;;;;;;5071708;28;20670;-68
2022/09/14 03:30:42;;;;;;;5.77;1.00;;;21.60;82.50;;;;;;5071496;28;20230;-68
2022/09/14 03:33:10;;;;;;;2.50;0.80;;;22.30;70.70;;;;;;5071589;28;20195;-69
2022/09/14 03:35:37;;;;;;;2.53;0.93;;;22.70;73.60;;;;;;5071810;28;20503;-69
2022/09/14 03:38:05;;;;;;;2.53;0.80;;;23.10;72.50;;;;;;5071655;28;20190;-68
2022/09/14 03:40:32;;;;;;;5.10;0.93;;;22.80;72.80;;;;;;5071698;28;20184;-68
2022/09/14 03:43:00;;;;;;;4.10;1.00;;;22.20;78.90;;;;;;5071034;28;20183;-68
2022/09/14 03:45:27;;;;;;;1.17;1.00;;;21.50;83.40;;;;;;5071694;28;20548;-68
2022/09/14 03:47:54;;;;;;;5.07;1.00;;;21.20;87.20;;;;;;5071089;28;20624;-68
2022/09/14 03:50:22;;;;;;;2.57;0.80;;;20.50;94.00;;;;;;5071629;28;20553;-68
2022/09/14 03:52:49;;;;;;;2.23;1.00;;;20.20;99.90;;;;;;5071526;28;20173;-68
2022/09/14 03:55:18;;;;;;;2.57;0.93;;;19.80;99.90;;;;;;5065667;28;20614;-68
2022/09/14 03:57:45;;;;;;;3.30;1.30;;;19.70;99.90;;;;;;5060925;28;20199;-68
2022/09/14 04:00:13;;;;;;;3.90;1.10;;;19.70;99.90;;;;;;5058834;28;20196;-68
2022/09/14 04:02:41;;;;;;;5.20;1.10;;;19.70;99.90;;;;;;5051428;28;20188;-68
2022/09/14 04:05:09;;;;;;;2.13;0.77;;;19.80;99.90;;;;;;5051407;28;20190;-68
2022/09/14 04:07:36;;;;;;;4.73;1.10;;;19.80;99.90;;;;;;5061615;28;20191;-67
2022/09/14 04:10:05;;;;;;;9.63;1.93;;;19.60;99.90;;;;;;5065397;28;20189;-68
2022/09/14 04:12:37;;;;;;;7.23;1.00;;;19.40;99.90;;;;;;5070957;28;20187;-68
2022/09/14 04:15:08;;;;;;;3.20;1.10;;;19.10;99.90;;;;;;5071352;28;20270;-67
2022/09/14 04:17:36;;;;;;;7.93;1.07;;;19.00;99.90;;;;;;5067199;28;20257;-68
2022/09/14 04:20:04;;;;;;;4.20;1.30;;;18.80;99.90;;;;;;5071190;28;20290;-68
2022/09/14 04:22:32;;;;;;;1.97;0.60;;;18.80;99.90;;;;;;5071246;28;20175;-68
2022/09/14 04:25:00;;;;;;;8.37;1.03;;;18.90;99.90;;;;;;5055725;28;20225;-68
2022/09/14 04:27:27;;;;;;;4.27;1.10;;;18.80;99.90;;;;;;5056259;28;20229;-68
2022/09/14 04:29:55;;;;;;;5.40;1.00;;;18.80;99.90;;;;;;5070996;28;20219;-68
2022/09/14 04:32:22;;;;;;;6.63;1.37;;;18.90;99.90;;;;;;5067581;28;20259;-68
2022/09/14 04:34:49;;;;;;;3.27;0.90;;;19.20;99.90;;;;;;5059949;28;20182;-68
2022/09/14 04:37:17;;;;;;;2.13;0.70;;;19.70;99.90;;;;;;5054569;28;20205;-68
2022/09/14 04:39:45;;;;;;;1.90;1.00;;;20.20;99.90;;;;;;5070854;28;20787;-68
2022/09/14 04:42:12;;;;;;;2.37;0.67;;;20.30;99.90;;;;;;5069880;28;20204;-68
2022/09/14 04:44:40;;;;;;;1.00;0.67;;;20.20;99.90;;;;;;5074498;28;20189;-69
2022/09/14 04:47:07;;;;;;;1.47;0.70;;;20.40;99.90;;;;;;5074598;28;20182;-68
2022/09/14 04:49:35;;;;;;;3.03;0.70;;;20.70;99.90;;;;;;5069265;28;20224;-68
2022/09/14 04:52:02;;;;;;;3.53;0.90;;;20.30;99.90;;;;;;5078100;28;20180;-69
2022/09/14 04:54:30;;;;;;;4.93;1.20;;;20.10;99.90;;;;;;5077749;28;20187;-70
2022/09/14 04:56:57;;;;;;;1.60;0.70;;;20.10;99.90;;;;;;5075464;28;20230;-69
2022/09/14 04:59:24;;;;;;;1.07;0.80;;;20.50;99.90;;;;;;5073385;28;20242;-68
2022/09/14 05:01:52;;;;;;;3.07;0.90;;;20.70;99.90;;;;;;5073712;28;20198;-69
2022/09/14 05:04:19;;;;;;;2.37;0.87;;;20.60;99.90;;;;;;5074561;28;20226;-69
2022/09/14 05:06:48;;;;;;;2.10;0.80;;;20.50;99.90;;;;;;5074319;28;20220;-68
2022/09/14 05:09:17;;;;;;;1.90;0.80;;;20.50;99.90;;;;;;5073163;28;20316;-69
2022/09/14 05:11:45;;;;;;;6.87;1.07;;;20.60;99.90;;;;;;5074052;28;20197;-68
2022/09/14 05:14:13;;;;;;;5.20;0.83;;;20.30;99.90;;;;;;5074361;28;20182;-68
2022/09/14 05:16:42;;;;;;;5.50;1.00;;;20.00;99.90;;;;;;5074644;28;20191;-69
2022/09/14 05:19:14;;;;;;;10.03;5.70;;;19.50;99.90;;;;;;5074186;28;20621;-69
2022/09/14 05:21:41;;;;;;;4.00;2.13;;;19.20;99.90;;;;;;5074080;28;20219;-70
2022/09/14 05:24:15;;;;;;;4.60;1.40;;;19.00;99.90;;;;;;5074000;28;20321;-69
2022/09/14 05:26:43;;;;;;;4.40;2.37;;;18.80;99.90;;;;;;5074264;28;20176;-69
2022/09/14 05:29:16;;;;;;;3.33;0.80;;;18.70;99.90;;;;;;5073223;28;20550;-69
2022/09/14 05:31:43;;;;;;;2.13;0.73;;;18.50;99.90;;;;;;5073776;28;20524;-68
2022/09/14 05:34:12;;;;;;;1.50;0.83;;;18.40;99.90;;;;;;5074035;28;20180;-69
2022/09/14 05:36:40;;;;;;;2.90;0.70;;;18.30;99.90;;;;;;5074206;28;20187;-70
2022/09/14 05:39:08;;;;;;;2.47;0.90;;;18.20;99.90;;;;;;5073933;28;20629;-68
2022/09/14 05:41:36;;;;;;;3.27;0.80;;;18.20;99.90;;;;;;5054273;28;20180;-68
2022/09/14 05:44:06;;;;;;;3.37;0.70;;;18.20;99.90;;;;;;5054034;28;20181;-69
2022/09/14 05:46:37;;;;;;;2.30;0.80;;;18.20;99.90;;;;;;5060339;28;20532;-71
2022/09/14 05:49:04;;;;;;;1.47;0.70;;;18.30;99.90;;;;;;5074127;28;20312;-69
2022/09/14 05:51:31;;;;;;;1.63;0.70;;;18.30;99.90;;;;;;5073385;28;20191;-69
2022/09/14 05:53:59;;;;;;;2.77;0.90;;;18.20;99.90;;;;;;5073216;28;20187;-69
2022/09/14 05:56:30;;;;;;;1.77;0.70;;;18.40;99.90;;;;;;5073910;28;20529;-69
2022/09/14 05:58:59;;;;;;;2.67;0.80;;;18.30;99.90;;;;;;5073694;28;20191;-69
2022/09/14 06:01:29;;;;;;;1.97;0.70;;;18.30;99.90;;;;;;5073364;28;20199;-68
2022/09/14 06:04:01;;;;;;;1.13;0.77;;;18.20;99.90;;;;;;5072113;28;20333;-68
2022/09/14 06:06:30;;;;;;;3.17;0.83;;;18.30;99.90;;;;;;5073447;28;20271;-67
2022/09/14 06:08:58;;;;;;;3.80;0.77;;;18.40;99.90;;;;;;5073513;28;20350;-68
2022/09/14 06:11:35;;;;;;;0.77;0.60;;;18.60;99.90;;;;;;5073327;28;20236;-69
2022/09/14 06:14:03;;;;;;;1.87;0.73;;;18.60;99.90;;;;;;5072255;28;20244;-68
2022/09/14 06:16:30;;;;;;;4.37;0.93;;;18.80;99.90;;;;;;5073333;28;20533;-69
2022/09/14 06:19:00;;;;;;;2.80;0.90;;;18.70;99.90;;;;;;5073385;28;20187;-69
2022/09/14 06:21:31;;;;;;;1.80;0.80;;;18.60;99.90;;;;;;5073218;28;20172;-69
2022/09/14 06:23:59;;;;;;;3.47;0.90;;;18.70;99.90;;;;;;5072318;28;20631;-69
2022/09/14 06:26:26;;;;;;;4.30;0.90;;;18.50;99.90;;;;;;5073824;28;20168;-69
2022/09/14 06:28:54;;;;;;;1.87;0.70;;;18.60;99.90;;;;;;5074579;28;20773;-69
2022/09/14 06:31:23;;;;;;;1.97;0.70;;;18.60;99.90;;;;;;5073743;28;20186;-70
2022/09/14 06:33:52;;;;;;;2.00;0.83;;;18.80;99.90;;;;;;5074762;28;20191;-68
2022/09/14 06:36:22;;;;;;;4.60;1.10;;;18.90;99.90;;;;;;5068137;28;20219;-68
2022/09/14 06:38:50;;;;;;;2.83;1.30;;;18.90;99.90;;;;;;5073079;28;20188;-68
2022/09/14 06:41:25;;;;;;;6.23;1.40;;;18.80;99.90;;;;;;5073498;28;20181;-68
2022/09/14 06:43:55;;;;;;;2.70;0.90;;;18.80;99.90;;;;;;5074635;28;20182;-69
2022/09/14 06:46:29;;;;;;;14.07;9.83;;;18.70;99.90;;;;;;5074324;28;20182;-68
2022/09/14 06:48:59;;;;;;;6.57;2.33;;;18.60;99.90;;;;;;5074438;28;20218;-69
2022/09/14 06:51:33;;;;;;;2.13;1.40;;;18.50;99.90;;;;;;5074131;28;20179;-70
2022/09/14 06:54:02;;;;;;;4.63;1.10;;;18.40;99.90;;;;;;5074241;28;20187;-69
2022/09/14 06:56:35;;;;;;;1.47;1.10;;;18.20;99.90;;;;;;5073967;28;20630;-69
2022/09/14 06:59:03;;;;;;;5.77;1.20;;;18.10;99.90;;;;;;5074092;28;20241;-69
2022/09/14 07:01:32;;;;;;;3.20;0.90;;;17.90;99.90;;;;;;5072720;28;20176;-71
2022/09/14 07:04:00;;;;;;;3.17;0.83;;;17.60;99.90;;;;;;5073898;28;20270;-70
2022/09/14 07:06:31;;;;;;;1.93;0.73;;;17.40;99.90;;;;;;5073130;28;20554;-68
2022/09/14 07:09:02;;;;;;;1.47;0.70;;;17.30;99.90;;;;;;5074095;28;20542;-68
2022/09/14 07:11:29;;;;;;;1.83;0.80;;;17.20;99.90;;;;;;5072515;28;20184;-69
2022/09/14 07:14:01;;;;;;;1.90;0.70;;;17.10;99.90;;;;;;5073969;28;20186;-69
2022/09/14 07:16:29;;;;;;;3.07;0.90;;;16.90;99.90;;;;;;5073562;28;20365;-70
2022/09/14 07:19:02;;;;;;;0.93;0.73;;;16.70;99.90;;;;;;5073662;28;20176;-68
2022/09/14 07:21:33;;;;;;;1.63;0.83;;;16.60;99.90;;;;;;5073477;28;20214;-70
2022/09/14 07:24:01;;;;;;;2.30;1.57;;;16.40;99.90;;;;;;5073408;28;20220;-68
2022/09/14 07:26:31;;;;;;;4.20;1.20;;;16.30;99.90;;;;;;5073338;28;20176;-69
2022/09/14 07:29:03;;;;;;;4.90;1.60;;;16.30;99.90;;;;;;5073508;28;20219;-68
2022/09/14 07:31:50;;;;;;;3.17;0.87;;;16.20;99.90;;;;;;5072113;28;20180;-72
2022/09/14 07:34:17;;;;;;;3.13;1.00;;;16.10;99.90;;;;;;5073572;28;20180;-69
2022/09/14 07:36:45;;;;;;;2.40;0.67;;;16.00;99.90;;;;;;5073327;28;20179;-68
2022/09/14 07:39:17;;;;;;;4.13;0.83;;;15.90;99.90;;;;;;5073629;28;20187;-71
2022/09/14 07:41:44;;;;;;;1.40;0.87;;;15.90;99.90;;;;;;5073291;28;20221;-68
2022/09/14 07:44:15;;;;;;;3.83;0.90;;;15.90;99.90;;;;;;5073230;28;20175;-68
2022/09/14 07:46:44;;;;;;;10.47;0.90;;;15.80;99.90;;;;;;5073620;28;20172;-68
2022/09/14 07:49:13;;;;;;;6.33;0.80;;;15.70;99.90;;;;;;5073005;28;20203;-69
2022/09/14 07:51:40;;;;;;;2.80;2.00;;;15.70;99.90;;;;;;5072959;28;20183;-68
2022/09/14 07:54:11;;;;;;;5.80;3.37;;;15.60;99.90;;;;;;5073030;28;20309;-69
2022/09/14 07:56:39;;;;;;;5.10;1.90;;;15.60;99.90;;;;;;5070921;28;20187;-69
2022/09/14 07:59:06;;;;;;;4.20;1.40;;;15.50;99.90;;;;;;5073758;28;20183;-68
2022/09/14 08:01:34;;;;;;;9.90;1.07;;;15.50;99.90;;;;;;5073269;28;20188;-70
2022/09/14 08:04:06;;;;;;;7.50;3.53;;;15.40;99.90;;;;;;5072973;28;20210;-68
2022/09/14 08:06:34;;;;;;;10.60;6.00;;;15.40;99.90;;;;;;5072929;28;20180;-69
2022/09/14 08:09:07;;;;;;;4.43;1.33;;;15.30;99.90;;;;;;5072991;28;20204;-68
2022/09/14 08:11:35;;;;;;;4.27;1.00;;;15.20;99.90;;;;;;5073076;28;20204;-69
2022/09/14 08:14:11;;;;;;;7.77;1.07;;;15.20;99.90;;;;;;5073150;28;20205;-69
2022/09/14 08:16:42;;;;;;;3.40;1.20;;;15.10;99.90;;;;;;5073731;28;20633;-69
2022/09/14 08:19:17;;;;;;;4.80;1.37;;;15.10;99.90;;;;;;5077114;28;20240;-69
2022/09/14 08:21:47;;;;;;;31.47;19.57;;;15.10;99.90;;;;;;5077281;28;20168;-68
2022/09/14 08:24:17;;;;;;;4.83;1.27;;;15.00;99.90;;;;;;5076968;28;20591;-68
2022/09/14 08:26:46;;;;;;;9.63;5.70;;;15.00;99.90;;;;;;5076936;28;20176;-69
2022/09/14 08:29:15;;;;;;;3.07;1.30;;;15.00;99.90;;;;;;5076918;28;20305;-68
2022/09/14 08:31:44;;;;;;;4.00;1.73;;;14.90;99.90;;;;;;5077215;28;20202;-68
2022/09/14 08:34:15;;;;;;;4.70;1.50;;;14.90;99.90;;;;;;5076853;28;20291;-70
2022/09/14 08:36:44;;;;;;;5.53;2.83;;;14.90;99.90;;;;;;5076811;28;20171;-69
2022/09/14 08:39:14;;;;;;;12.57;5.63;;;14.80;99.90;;;;;;5075799;28;20186;-69
2022/09/14 08:41:51;;;;;;;9.47;2.93;;;14.80;99.90;;;;;;5076631;28;20253;-70
2022/09/14 08:44:38;;;;;;;3.60;1.63;;;14.70;99.90;;;;;;5076777;28;20187;-69
2022/09/14 08:47:07;;;;;;;4.17;1.83;;;14.70;99.90;;;;;;5077260;28;20256;-69
2022/09/14 08:49:51;;;;;;;6.10;1.50;;;14.70;99.90;;;;;;5076588;28;20216;-70
2022/09/14 08:52:53;;;;;;;19.67;8.80;;;14.70;99.90;;;;;;5076629;28;20183;-69
2022/09/14 08:55:55;;;;;;;4.87;2.87;;;14.70;99.90;;;;;;5063590;28;20668;-68
2022/09/14 08:58:32;;;;;;;4.50;1.60;;;14.60;99.90;;;;;;5076162;28;20179;-69
2022/09/14 09:01:15;;;;;;;2.90;1.13;;;14.60;99.90;;;;;;5076271;28;20237;-69
2022/09/14 09:04:13;;;;;;;2.50;1.23;;;14.60;99.90;;;;;;5076999;28;20259;-71
2022/09/14 09:06:43;;;;;;;2.13;1.10;;;14.50;99.90;;;;;;5074945;28;20537;-69
2022/09/14 09:09:39;;;;;;;4.43;1.30;;;14.50;99.90;;;;;;5076173;28;20219;-69
2022/09/14 09:12:16;;;;;;;11.30;4.80;;;14.50;99.90;;;;;;5069859;28;20191;-69
2022/09/14 09:15:35;;;;;;;10.20;5.00;;;14.50;99.90;;;;;;5075228;28;20198;-69
2022/09/14 09:18:23;;;;;;;10.37;3.87;;;14.50;99.90;;;;;;5014276;28;20186;-69
2022/09/14 09:21:03;;;;;;;6.60;1.60;;;14.40;99.90;;;;;;5031515;28;20203;-69
2022/09/14 09:23:34;;;;;;;3.40;1.60;;;14.40;99.90;;;;;;5074524;28;20232;-69
2022/09/14 09:26:20;;;;;;;3.87;1.63;;;14.40;99.90;;;;;;5076258;28;20191;-69
2022/09/14 09:28:56;;;;;;;5.50;2.37;;;14.40;99.90;;;;;;5075466;28;20260;-69
2022/09/14 09:31:46;;;;;;;4.97;1.97;;;14.30;99.90;;;;;;5074596;28;20598;-69
2022/09/14 09:34:35;;;;;;;3.90;2.60;;;14.20;99.90;;;;;;5076008;28;20224;-70
2022/09/14 09:37:03;;;;;;;5.53;2.00;;;14.10;99.90;;;;;;5075684;28;20198;-69
2022/09/14 09:39:32;;;;;;;3.67;2.27;;;14.00;99.90;;;;;;5074300;28;20324;-71
2022/09/14 09:42:49;;;;;;;8.47;1.57;;;14.00;99.90;;;;;;5075668;28;20194;-69
2022/09/14 09:45:51;;;;;;;2.60;1.30;;;13.90;99.90;;;;;;5075754;28;20181;-69
2022/09/14 09:48:29;;;;;;;4.63;1.73;;;13.90;99.90;;;;;;5074851;28;20213;-68
2022/09/14 09:51:35;;;;;;;12.17;6.60;;;13.80;99.90;;;;;;5074799;28;20178;-68
2022/09/14 09:54:23;;;;;;;11.50;6.40;;;13.70;99.90;;;;;;4997416;28;20225;-69
2022/09/14 09:57:18;;;;;;;5.57;3.30;;;13.70;99.90;;;;;;5013571;28;20181;-70
2022/09/14 09:59:47;;;;;;;6.97;4.90;;;13.60;99.90;;;;;;5060480;28;20189;-70
2022/09/14 10:02:20;;;;;;;7.27;3.57;;;13.50;99.90;;;;;;5075331;28;20181;-71
2022/09/14 10:05:15;;;;;;;3.87;2.43;;;13.40;99.90;;;;;;5075471;28;20182;-69
2022/09/14 10:08:06;;;;;;;6.47;2.30;;;13.40;99.90;;;;;;5069512;28;20189;-69
2022/09/14 10:10:38;;;;;;;5.33;1.97;;;13.30;99.90;;;;;;5073983;28;20577;-69
2022/09/14 10:13:39;;;;;;;3.27;1.80;;;13.20;99.90;;;;;;5075273;28;20702;-69
2022/09/14 10:16:16;;;;;;;4.83;1.80;;;13.10;99.90;;;;;;5075668;28;20182;-69
2022/09/14 10:18:50;;;;;;;6.40;4.37;;;13.00;99.90;;;;;;5075441;28;20171;-71
2022/09/14 10:21:21;;;;;;;4.07;2.47;;;13.00;99.90;;;;;;5074882;28;20523;-68
2022/09/14 10:24:04;;;;;;;4.60;2.93;;;12.90;99.90;;;;;;5075122;28;20306;-69
2022/09/14 10:26:36;;;;;;;6.60;2.00;;;12.90;99.90;;;;;;5075309;28;20177;-69
2022/09/14 10:29:39;;;;;;;3.27;1.60;;;12.90;99.90;;;;;;5074840;28;20213;-69
2022/09/14 10:32:24;;;;;;;3.40;2.57;;;12.80;99.90;;;;;;5013112;28;20558;-67
2022/09/14 10:34:52;;;;;;;9.07;4.90;;;12.80;99.90;;;;;;5013095;28;20181;-68
2022/09/14 10:37:43;;;;;;;9.57;3.77;;;12.80;99.90;;;;;;5074916;28;20197;-68
2022/09/14 10:40:18;;;;;;;4.27;2.23;;;12.70;99.90;;;;;;5074445;28;20186;-70
2022/09/14 10:43:22;;;;;;;2.50;2.00;;;12.70;99.90;;;;;;5073614;28;20191;-69
2022/09/14 10:46:01;;;;;;;4.53;2.00;;;12.60;99.90;;;;;;5071879;28;20530;-69
2022/09/14 10:49:12;;;;;;;5.40;1.60;;;12.60;99.90;;;;;;5074437;28;20292;-68
2022/09/14 10:52:03;;;;;;;2.47;1.50;;;12.60;99.90;;;;;;5073340;28;20178;-69
2022/09/14 10:55:16;;;;;;;2.00;1.60;;;12.50;99.90;;;;;;5074433;28;20190;-68
2022/09/14 10:58:06;;;;;;;4.97;1.57;;;12.50;99.90;;;;;;5074153;28;20198;-69
2022/09/14 11:00:58;;;;;;;3.03;1.40;;;12.60;99.90;;;;;;5072901;28;20190;-68
2022/09/14 11:03:26;;;;;;;3.97;1.50;;;12.60;99.90;;;;;;5074209;28;20175;-69
2022/09/14 11:06:14;;;;;;;3.80;1.60;;;12.60;99.90;;;;;;5073150;28;20518;-69
2022/09/14 11:08:55;;;;;;;4.57;1.70;;;12.50;99.90;;;;;;5073009;28;20310;-68
2022/09/14 11:11:47;;;;;;;3.60;2.00;;;12.50;99.90;;;;;;5074432;28;20181;-68
2022/09/14 11:14:30;;;;;;;5.17;2.13;;;12.50;99.90;;;;;;5074321;28;20178;-68
2022/09/14 11:17:40;;;;;;;2.50;2.00;;;12.50;99.90;;;;;;5073772;28;20174;-69
2022/09/14 11:20:30;;;;;;;4.67;1.97;;;12.40;99.90;;;;;;5073966;28;20184;-69
2022/09/14 11:23:07;;;;;;;4.87;2.00;;;12.30;99.90;;;;;;5046231;28;20600;-69
2022/09/14 11:25:45;;;;;;;9.03;1.93;;;12.20;99.90;;;;;;5074041;28;20654;-69
2022/09/14 11:28:21;;;;;;;4.50;2.00;;;12.20;99.90;;;;;;5073543;28;20219;-72
2022/09/14 11:31:02;;;;;;;4.77;1.90;;;12.20;99.90;;;;;;5073960;28;20170;-70
2022/09/14 11:33:55;;;;;;;3.70;2.00;;;12.10;99.90;;;;;;5073847;28;20178;-69
2022/09/14 11:36:30;;;;;;;4.63;1.80;;;12.10;99.90;;;;;;5073419;28;20174;-69
2022/09/14 11:39:23;;;;;;;5.73;2.40;;;12.00;99.90;;;;;;5073208;28;20213;-68
2022/09/14 11:41:55;;;;;;;4.97;2.47;;;12.00;99.90;;;;;;5073495;28;20214;-68
2022/09/14 11:44:31;;;;;;;9.10;2.67;;;11.90;99.90;;;;;;5073707;28;20213;-68
2022/09/14 11:47:27;;;;;;;5.10;2.53;;;11.90;99.90;;;;;;5073564;28;20299;-67
2022/09/14 11:50:03;;;;;;;4.53;2.53;;;11.80;99.90;;;;;;5071621;28;20686;-68
2022/09/14 11:52:33;;;;;;;5.73;2.40;;;11.80;99.90;;;;;;5073183;28;20309;-69
2022/09/14 11:55:02;;;;;;;5.63;3.10;;;11.90;99.90;;;;;;5071450;28;20197;-69
2022/09/14 11:57:32;;;;;;;4.70;2.90;;;11.80;99.90;;;;;;5073286;28;20176;-68
2022/09/14 12:00:24;;;;;;;3.60;2.10;;;11.80;99.90;;;;;;5073576;28;20186;-68
2022/09/14 12:03:00;;;;;;;5.87;2.20;;;11.70;99.90;;;;;;5073633;28;20173;-68
2022/09/14 12:05:31;;;;;;;4.33;2.10;;;11.60;99.90;;;;;;5073518;28;20185;-67
2022/09/14 12:08:05;;;;;;;5.07;2.20;;;11.60;99.90;;;;;;5073143;28;20624;-68
2022/09/14 12:11:09;;;;;;;6.20;1.90;;;11.50;99.90;;;;;;5073002;28;20189;-69
2022/09/14 12:13:38;;;;;;;3.67;2.00;;;11.50;99.90;;;;;;5073373;28;20178;-69
2022/09/14 12:16:07;;;;;;;4.10;2.07;;;11.50;99.90;;;;;;5073066;28;20183;-68
2022/09/14 12:18:37;;;;;;;4.13;1.87;;;11.40;99.90;;;;;;5072858;28;20259;-68
2022/09/14 12:21:17;;;;;;;3.43;2.10;;;11.40;99.90;;;;;;5073123;28;20214;-70
2022/09/14 12:23:50;;;;;;;2.77;1.73;;;11.30;99.90;;;;;;5072950;28;20224;-68
2022/09/14 12:26:18;;;;;;;6.60;2.53;;;11.30;99.90;;;;;;5073279;28;20717;-70
2022/09/14 12:28:52;;;;;;;5.57;2.53;;;11.20;99.90;;;;;;5072799;28;20210;-70
2022/09/14 12:31:55;;;;;;;4.43;2.90;;;11.20;99.90;;;;;;5073589;28;20282;-70
2022/09/14 12:34:30;;;;;;;4.33;2.30;;;11.20;99.90;;;;;;5011134;28;20195;-69
2022/09/14 12:37:23;;;;;;;3.60;2.07;;;11.20;99.90;;;;;;5059745;28;20634;-69
2022/09/14 12:40:20;;;;;;;4.00;2.20;;;11.10;99.90;;;;;;5063216;28;20188;-69
2022/09/14 12:42:48;;;;;;;4.63;2.40;;;11.20;99.90;;;;;;5071954;28;20185;-69
2022/09/14 12:45:54;;;;;;;3.60;2.07;;;11.20;99.90;;;;;;5071556;28;20195;-69
2022/09/14 12:48:53;;;;;;;5.50;2.50;;;11.10;99.90;;;;;;5027772;28;20226;-70
2022/09/14 12:51:34;;;;;;;5.43;2.40;;;11.10;99.90;;;;;;5054050;28;20185;-67
2022/09/14 12:54:08;;;;;;;3.77;2.00;;;11.10;99.90;;;;;;5071541;28;20552;-69
2022/09/14 12:56:53;;;;;;;5.20;2.47;;;11.00;99.90;;;;;;5072541;28;20530;-67
2022/09/14 12:59:48;;;;;;;4.17;2.53;;;11.00;99.90;;;;;;5072295;28;20243;-67
2022/09/14 13:02:36;;;;;;;4.03;2.10;;;10.90;99.90;;;;;;5072859;28;20175;-68
2022/09/14 13:05:06;;;;;;;4.30;2.20;;;10.90;99.90;;;;;;5075525;28;20188;-69
2022/09/14 13:07:39;;;;;;;5.93;2.37;;;10.80;99.90;;;;;;5076440;28;20653;-70
2022/09/14 13:10:15;;;;;;;3.83;1.83;;;10.70;99.90;;;;;;5076032;28;20220;-69
2022/09/14 13:12:48;;;;;;;7.10;2.63;;;10.80;99.90;;;;;;5075873;28;20536;-69
2022/09/14 13:15:23;;;;;;;5.97;2.60;;;10.70;99.90;;;;;;5076067;28;20193;-68
2022/09/14 13:17:58;;;;;;;10.43;2.33;;;10.70;99.90;;;;;;5075952;28;20191;-68
2022/09/14 13:20:26;;;;;;;4.83;2.30;;;10.60;99.90;;;;;;5075968;28;20267;-69
2022/09/14 13:22:54;;;;;;;3.50;2.03;;;10.60;99.90;;;;;;5076159;28;20611;-69
2022/09/14 13:25:35;;;;;;;5.93;2.00;;;10.60;99.90;;;;;;5075505;28;20264;-67
2022/09/14 13:28:13;;;;;;;3.83;2.50;;;10.60;99.90;;;;;;5075902;28;20169;-69
2022/09/14 13:30:41;;;;;;;5.00;2.10;;;10.50;99.90;;;;;;5075654;28;20204;-67
2022/09/14 13:33:18;;;;;;;7.70;2.90;;;10.50;99.90;;;;;;5075898;28;20649;-68
2022/09/14 13:35:50;;;;;;;8.13;2.63;;;10.50;99.90;;;;;;5075434;28;20552;-68